createdAt,value
2019-01-12T00:01:40.215Z,101193
2019-01-12T00:07:05.450Z,101190
2019-01-12T00:12:30.004Z,101189
2019-01-12T00:17:54.348Z,101192
2019-01-12T00:23:17.038Z,101185
2019-01-12T00:28:41.179Z,101181
2019-01-12T00:34:05.081Z,101182
2019-01-12T00:39:28.019Z,101177
2019-01-12T00:44:52.496Z,101177
2019-01-12T00:50:15.255Z,101171
2019-01-12T00:55:39.814Z,101167
2019-01-12T01:01:03.101Z,101164
2019-01-12T01:06:27.463Z,101167
2019-01-12T01:11:51.772Z,101170
2019-01-12T01:17:14.530Z,101171
2019-01-12T01:22:37.584Z,101176
2019-01-12T01:28:00.736Z,101175
2019-01-12T01:33:27.980Z,101175
2019-01-12T01:38:47.031Z,101172
2019-01-12T01:44:10.835Z,101173
2019-01-12T01:49:35.432Z,101169
2019-01-12T01:54:58.425Z,101167
2019-01-12T02:00:23.937Z,101167
2019-01-12T02:05:46.652Z,101164
2019-01-12T02:11:15.670Z,101166
2019-01-12T02:16:38.961Z,101163
2019-01-12T02:22:01.753Z,101162
2019-01-12T02:27:24.500Z,101155
2019-01-12T02:32:47.867Z,101156
2019-01-12T02:38:11.521Z,101147
2019-01-12T02:43:34.933Z,101145
2019-01-12T02:48:57.700Z,101138
2019-01-12T02:54:20.403Z,101131
2019-01-12T02:59:43.144Z,101126
2019-01-12T03:05:14.838Z,101118
2019-01-12T03:10:38.547Z,101116
2019-01-12T03:16:01.387Z,101104
2019-01-12T03:21:24.107Z,101103
2019-01-12T03:26:48.002Z,101093
2019-01-12T03:32:10.636Z,101094
2019-01-12T03:37:33.497Z,101083
2019-01-12T03:42:56.305Z,101082
2019-01-12T03:48:19.974Z,101078
2019-01-12T03:53:54.880Z,101070
2019-01-12T03:59:17.741Z,101072
2019-01-12T04:04:41.527Z,101069
2019-01-12T04:10:04.364Z,101070
2019-01-12T04:15:27.883Z,101054
2019-01-12T04:21:01.874Z,101054
2019-01-12T04:26:35.740Z,101055
2019-01-12T04:31:59.201Z,101047
2019-01-12T04:37:21.828Z,101047
2019-01-12T04:42:44.644Z,101043
2019-01-12T04:48:07.408Z,101041
2019-01-12T04:53:30.379Z,101040
2019-01-12T04:58:53.062Z,101034
2019-01-12T05:04:16.815Z,101044
2019-01-12T05:09:39.547Z,101051
2019-01-12T05:15:03.752Z,101041
2019-01-12T05:20:26.796Z,101039
2019-01-12T05:25:49.805Z,101032
2019-01-12T05:31:12.763Z,101032
2019-01-12T05:36:46.534Z,101032
2019-01-12T05:42:19.070Z,101018
2019-01-12T05:47:44.701Z,101025
2019-01-12T05:53:07.847Z,101025
2019-01-12T05:58:32.020Z,101019
2019-01-12T06:03:54.763Z,101009
2019-01-12T06:09:19.161Z,101009
2019-01-12T06:14:51.734Z,100998
2019-01-12T06:20:26.163Z,100994
2019-01-12T06:25:48.845Z,100994
2019-01-12T06:31:22.219Z,100991
2019-01-12T06:36:54.697Z,100985
2019-01-12T06:42:17.539Z,100973
2019-01-12T06:47:40.549Z,100960
2019-01-12T06:53:13.918Z,100956
2019-01-12T06:58:46.866Z,100947
2019-01-12T07:04:09.673Z,100937
2019-01-12T07:09:42.366Z,100942
2019-01-12T07:15:15.704Z,100930
2019-01-12T07:20:46.477Z,100925
2019-01-12T07:26:18.423Z,100919
2019-01-12T07:31:51.060Z,100919
2019-01-12T07:37:22.969Z,100904
2019-01-12T07:42:56.905Z,100905
2019-01-12T07:48:28.990Z,100890
2019-01-12T07:54:01.072Z,100883
2019-01-12T07:59:34.181Z,100872
2019-01-12T08:05:07.561Z,100873
2019-01-12T08:10:39.749Z,100861
2019-01-12T08:16:03.143Z,100857
2019-01-12T08:21:25.977Z,100845
2019-01-12T08:26:48.346Z,100836
2019-01-12T08:32:22.781Z,100828
2019-01-12T08:37:56.819Z,100843
2019-01-12T08:43:23.756Z,100853
2019-01-12T08:48:57.028Z,100847
2019-01-12T08:54:31.242Z,100821
2019-01-12T09:00:07.368Z,100810
2019-01-12T09:05:31.602Z,100794
2019-01-12T09:11:03.260Z,100786
2019-01-12T09:16:34.836Z,100775
2019-01-12T09:22:08.111Z,100775
2019-01-12T09:27:41.495Z,100760
2019-01-12T09:33:14.435Z,100756
2019-01-12T09:38:54.377Z,100744
2019-01-12T09:44:19.127Z,100748
2019-01-12T09:49:52.624Z,100754
2019-01-12T09:55:26.010Z,100756
2019-01-12T10:00:50.189Z,100713
2019-01-12T10:06:25.210Z,100699
2019-01-12T10:11:49.207Z,100688
2019-01-12T10:17:17.025Z,100685
2019-01-12T10:22:40.711Z,100672
2019-01-12T10:28:15.061Z,100651
2019-01-12T10:33:48.844Z,100649
2019-01-12T10:39:17.863Z,100633
2019-01-12T10:44:45.831Z,100623
2019-01-12T10:50:14.857Z,100612
2019-01-12T10:55:37.969Z,100603
2019-01-12T11:01:09.508Z,100590
2019-01-12T11:06:33.304Z,100594
2019-01-12T11:11:56.860Z,100564
2019-01-12T11:17:31.969Z,100559
2019-01-12T11:22:55.588Z,100557
2019-01-12T11:28:29.206Z,100531
2019-01-12T11:34:01.494Z,100527
2019-01-12T11:39:35.566Z,100511
2019-01-12T11:45:08.243Z,100495
2019-01-12T11:50:41.773Z,100493
2019-01-12T11:56:20.687Z,100490
2019-01-12T12:01:53.018Z,100475
2019-01-12T12:07:16.005Z,100442
2019-01-12T12:12:48.762Z,100429
2019-01-12T12:18:11.705Z,100428
2019-01-12T12:23:36.738Z,100414
2019-01-12T12:29:10.622Z,100395
2019-01-12T12:34:43.642Z,100364
2019-01-12T12:40:07.733Z,100376
2019-01-12T12:45:39.921Z,100348
2019-01-12T12:51:03.022Z,100351
2019-01-12T12:56:38.301Z,100335
2019-01-12T13:02:12.147Z,100315
2019-01-12T13:07:44.369Z,100304
2019-01-12T13:13:20.102Z,100296
2019-01-12T13:18:54.295Z,100288
2019-01-12T13:24:26.648Z,100289
2019-01-12T13:29:59.878Z,100280
2019-01-12T13:35:32.923Z,100264
2019-01-12T13:41:08.606Z,100262
2019-01-12T13:46:43.169Z,100258
2019-01-12T13:52:06.635Z,100252
2019-01-12T13:57:30.114Z,100245
2019-01-12T14:02:53.594Z,100228
2019-01-12T14:08:16.423Z,100234
2019-01-12T14:13:39.789Z,100227
2019-01-12T14:19:14.640Z,100223
2019-01-12T14:24:48.409Z,100226
2019-01-12T14:30:21.902Z,100213
2019-01-12T14:35:54.472Z,100213
2019-01-12T14:41:23.734Z,100216
2019-01-12T14:46:57.271Z,100221
2019-01-12T14:52:28.824Z,100212
2019-01-12T14:58:02.380Z,100210
2019-01-12T15:03:25.132Z,100206
2019-01-12T15:08:59.855Z,100203
2019-01-12T15:14:23.061Z,100197
2019-01-12T15:19:46.018Z,100194
2019-01-12T15:25:08.926Z,100184
2019-01-12T15:30:33.368Z,100183
2019-01-12T15:36:05.790Z,100182
2019-01-12T15:41:38.314Z,100189
2019-01-12T15:47:11.317Z,100188
2019-01-12T15:52:45.782Z,100169
2019-01-12T15:58:19.098Z,100166
2019-01-12T16:03:41.920Z,100156
2019-01-12T16:09:06.643Z,100154
2019-01-12T16:14:33.437Z,100150
2019-01-12T16:20:05.942Z,100153
2019-01-12T16:25:31.259Z,100150
2019-01-12T16:31:03.094Z,100150
2019-01-12T16:36:33.623Z,100150
2019-01-12T16:41:57.218Z,100136
2019-01-12T16:47:30.052Z,100140
2019-01-12T16:52:54.129Z,100136
2019-01-12T16:58:30.522Z,100128
2019-01-12T17:04:04.280Z,100129
2019-01-12T17:09:28.352Z,100130
2019-01-12T17:14:53.382Z,100129
2019-01-12T17:20:27.136Z,100135
2019-01-12T17:25:50.896Z,100138
2019-01-12T17:31:24.564Z,100146
2019-01-12T17:36:59.688Z,100147
2019-01-12T17:42:23.251Z,100152
2019-01-12T17:47:46.780Z,100161
2019-01-12T17:53:10.901Z,100159
2019-01-12T17:58:33.809Z,100171
2019-01-12T18:04:27.040Z,100164
2019-01-12T18:09:50.237Z,100170
2019-01-12T18:15:23.382Z,100162
2019-01-12T18:20:56.130Z,100163
2019-01-12T18:26:27.167Z,100141
2019-01-12T18:31:59.168Z,100122
2019-01-12T18:37:51.686Z,100131
2019-01-12T18:43:26.155Z,100137
2019-01-12T18:49:02.715Z,100143
2019-01-12T18:54:34.962Z,100138
2019-01-12T18:59:58.168Z,100140
2019-01-12T19:05:21.345Z,100139
2019-01-12T19:10:53.388Z,100135
2019-01-12T19:16:26.815Z,100123
2019-01-12T19:22:00.834Z,100121
2019-01-12T19:28:00.905Z,100124
2019-01-12T19:33:32.358Z,100127
2019-01-12T19:39:05.758Z,100118
2019-01-12T19:44:38.790Z,100120
2019-01-12T19:50:14.056Z,100112
2019-01-12T19:55:46.535Z,100115
2019-01-12T20:01:21.716Z,100106
2019-01-12T20:06:44.737Z,100102
2019-01-12T20:12:07.573Z,100099
2019-01-12T20:17:41.253Z,100096
2019-01-12T20:23:13.346Z,100100
2019-01-12T20:28:47.322Z,100097
2019-01-12T20:34:22.659Z,100099
2019-01-12T20:39:45.692Z,100093
2019-01-12T20:46:07.054Z,100098
2019-01-12T20:51:30.297Z,100085
2019-01-12T20:57:02.019Z,100092
2019-01-12T21:02:25.022Z,100093
2019-01-12T21:07:48.405Z,100087
2019-01-12T21:13:13.165Z,100084
2019-01-12T21:18:46.247Z,100078
2019-01-12T21:24:19.504Z,100073
2019-01-12T21:29:53.580Z,100072
2019-01-12T21:35:16.671Z,100066
2019-01-12T21:40:39.488Z,100064
2019-01-12T21:46:02.700Z,100073
2019-01-12T21:51:26.490Z,100068
2019-01-12T21:56:49.203Z,100061
2019-01-12T22:02:22.471Z,100062
2019-01-12T22:07:55.291Z,100072
2019-01-12T22:13:27.585Z,100080
2019-01-12T22:19:02.287Z,100070
2019-01-12T22:24:24.871Z,100082
2019-01-12T22:29:58.663Z,100080
2019-01-12T22:35:21.532Z,100074
2019-01-12T22:40:44.440Z,100072
2019-01-12T22:46:16.916Z,100049
2019-01-12T22:51:39.800Z,100048
2019-01-12T22:57:02.645Z,100047
2019-01-12T23:02:35.940Z,100040
2019-01-12T23:08:01.222Z,100040
2019-01-12T23:13:25.596Z,100038
2019-01-12T23:18:50.224Z,100034
2019-01-12T23:24:13.750Z,100029
2019-01-12T23:29:45.962Z,100023
2019-01-12T23:35:09.290Z,100021
2019-01-12T23:40:40.898Z,100033
2019-01-12T23:46:04.769Z,100023
2019-01-12T23:51:28.564Z,100017
2019-01-12T23:56:52.265Z,100016
